Wetterdaten: Samstag, 30.05.2015
Datum Zeit Temp. A. Feuchte A. Luftdruck Regen Wind Richtung Richtung Sonnenschein ET UV Solar Taupunkt Windchill Windben Empfang
30.05.2015 00:00 15,6 C 70 % 1009,4 hPa 0,0 l/m 0,7 km/h (0 Bft) N-NW 345 0 min 0,000 mm 0,0 UV-I 0 W/m 10,1 C 15,6 C 4,0 km/h (1 Bft) 0,00 %
30.05.2015 00:15 14,7 C 73 % 1009,8 hPa 0,0 l/m 0,0 km/h (0 Bft) S-SW 194 0 min 0,000 mm 0,0 UV-I 0 W/m 9,9 C 14,7 C 0,0 km/h (0 Bft) 0,00 %
30.05.2015 00:30 14,5 C 74 % 1010,0 hPa 0,0 l/m 1,4 km/h (1 Bft) O-SO 108 0 min 0,000 mm 0,0 UV-I 0 W/m 9,9 C 14,5 C 4,0 km/h (1 Bft) 0,00 %
30.05.2015 00:45 14,2 C 81 % 1011,4 hPa 0,0 l/m 1,8 km/h (1 Bft) S 181 0 min 0,000 mm 0,0 UV-I 0 W/m 11,0 C 14,2 C 4,0 km/h (1 Bft) 0,00 %
30.05.2015 01:00 13,8 C 85 % 1011,5 hPa 1,2 l/m 0,0 km/h (0 Bft) S 182 0 min 0,000 mm 0,0 UV-I 0 W/m 11,3 C 13,8 C 0,0 km/h (0 Bft) 0,00 %
30.05.2015 01:15 13,3 C 89 % 1011,7 hPa 0,3 l/m 0,0 km/h (0 Bft) NW 321 0 min 0,000 mm 0,0 UV-I 0 W/m 11,5 C 13,3 C 0,0 km/h (0 Bft) 0,00 %
30.05.2015 01:30 13,2 C 90 % 1011,2 hPa 0,0 l/m 0,0 km/h (0 Bft) SW 233 0 min 0,000 mm 0,0 UV-I 0 W/m 11,6 C 13,2 C 0,0 km/h (0 Bft) 0,00 %
30.05.2015 01:45 13,1 C 91 % 1010,7 hPa 0,3 l/m 0,0 km/h (0 Bft) S 186 0 min 0,000 mm 0,0 UV-I 0 W/m 11,7 C 13,1 C 0,0 km/h (0 Bft) 0,00 %
30.05.2015 02:00 13,1 C 90 % 1010,5 hPa 0,0 l/m 0,7 km/h (0 Bft) S-SW 209 0 min 0,000 mm 0,0 UV-I 0 W/m 11,5 C 13,1 C 4,0 km/h (1 Bft) 0,00 %
30.05.2015 02:15 13,2 C 88 % 1010,6 hPa 0,0 l/m 0,0 km/h (0 Bft) S-SW 194 0 min 0,000 mm 0,0 UV-I 0 W/m 11,3 C 13,2 C 0,0 km/h (0 Bft) 0,00 %
30.05.2015 02:30 13,2 C 88 % 1011,9 hPa 0,0 l/m 1,4 km/h (1 Bft) S 178 0 min 0,000 mm 0,0 UV-I 0 W/m 11,3 C 13,2 C 7,9 km/h (2 Bft) 0,00 %
30.05.2015 02:45 13,1 C 89 % 1011,9 hPa 0,0 l/m 0,4 km/h (0 Bft) W-SW 239 0 min 0,000 mm 0,0 UV-I 0 W/m 11,3 C 13,1 C 4,0 km/h (1 Bft) 0,00 %
30.05.2015 03:00 13,0 C 90 % 1012,2 hPa 0,0 l/m 0,0 km/h (0 Bft) S 182 0 min 0,000 mm 0,0 UV-I 0 W/m 11,4 C 13,0 C 0,0 km/h (0 Bft) 0,00 %
30.05.2015 03:15 13,1 C 89 % 1012,1 hPa 0,0 l/m 0,0 km/h (0 Bft) S 181 0 min 0,000 mm 0,0 UV-I 0 W/m 11,3 C 13,1 C 0,0 km/h (0 Bft) 0,00 %
30.05.2015 03:30 13,0 C 90 % 1011,6 hPa 0,0 l/m 0,0 km/h (0 Bft) S-SW 196 0 min 0,000 mm 0,0 UV-I 0 W/m 11,4 C 13,0 C 0,0 km/h (0 Bft) 0,00 %
30.05.2015 03:45 13,1 C 89 % 1010,7 hPa 0,0 l/m 7,2 km/h (2 Bft) O-SO 111 0 min 0,000 mm 0,0 UV-I 0 W/m 11,3 C 12,6 C 11,9 km/h (2 Bft) 0,00 %
30.05.2015 04:00 13,0 C 90 % 1011,1 hPa 0,0 l/m 0,0 km/h (0 Bft) S 172 0 min 0,000 mm 0,0 UV-I 0 W/m 11,4 C 13,0 C 0,0 km/h (0 Bft) 0,00 %
30.05.2015 04:15 12,8 C 91 % 1011,2 hPa 0,0 l/m 0,0 km/h (0 Bft) SW 222 0 min 0,000 mm 0,0 UV-I 0 W/m 11,4 C 12,8 C 0,0 km/h (0 Bft) 0,00 %
30.05.2015 04:30 12,7 C 92 % 1011,5 hPa 0,0 l/m 0,0 km/h (0 Bft) S-SW 205 0 min 0,000 mm 0,0 UV-I 0 W/m 11,4 C 12,7 C 0,0 km/h (0 Bft) 0,00 %
30.05.2015 04:45 12,6 C 92 % 1011,5 hPa 0,0 l/m 0,0 km/h (0 Bft) S-SW 205 0 min 0,000 mm 0,0 UV-I 0 W/m 11,3 C 12,6 C 0,0 km/h (0 Bft) 0,00 %
30.05.2015 05:00 12,4 C 93 % 1011,7 hPa 0,0 l/m 0,0 km/h (0 Bft) S-SW 207 0 min 0,000 mm 0,0 UV-I 0 W/m 11,3 C 12,4 C 0,0 km/h (0 Bft) 0,00 %
30.05.2015 05:15 12,2 C 94 % 1011,8 hPa 0,0 l/m 0,0 km/h (0 Bft) SW 216 0 min 0,000 mm 0,0 UV-I 0 W/m 11,3 C 12,2 C 0,0 km/h (0 Bft) 0,00 %
30.05.2015 05:30 12,2 C 95 % 1012,0 hPa 0,0 l/m 0,0 km/h (0 Bft) S-SW 202 0 min 0,000 mm 0,0 UV-I 6 W/m 11,4 C 12,2 C 0,0 km/h (0 Bft) 0,00 %
30.05.2015 05:45 12,3 C 95 % 1012,2 hPa 0,0 l/m 0,0 km/h (0 Bft) S-SW 194 0 min 0,000 mm 0,0 UV-I 21 W/m 11,5 C 12,3 C 0,0 km/h (0 Bft) 0,00 %
30.05.2015 06:00 12,5 C 94 % 1012,2 hPa 0,0 l/m 0,0 km/h (0 Bft) S-SW 198 0 min 0,000 mm 0,0 UV-I 33 W/m 11,6 C 12,5 C 0,0 km/h (0 Bft) 0,00 %
30.05.2015 06:15 12,8 C 94 % 1012,3 hPa 0,0 l/m 0,0 km/h (0 Bft) S-SW 195 0 min 0,000 mm 0,0 UV-I 41 W/m 11,9 C 12,8 C 0,0 km/h (0 Bft) 0,00 %
30.05.2015 06:30 12,9 C 93 % 1012,5 hPa 0,0 l/m 0,0 km/h (0 Bft) S-SW 196 0 min 0,000 mm 1,0 UV-I 54 W/m 11,8 C 12,9 C 0,0 km/h (0 Bft) 0,00 %
30.05.2015 06:45 13,2 C 93 % 1012,5 hPa 0,0 l/m 0,4 km/h (0 Bft) SW 219 0 min 0,000 mm 1,0 UV-I 81 W/m 12,1 C 13,2 C 4,0 km/h (1 Bft) 0,00 %
30.05.2015 07:00 13,5 C 90 % 1012,5 hPa 0,0 l/m 0,0 km/h (0 Bft) S 190 0 min 0,000 mm 1,0 UV-I 99 W/m 11,9 C 13,5 C 0,0 km/h (0 Bft) 0,00 %
30.05.2015 07:15 13,7 C 89 % 1012,5 hPa 0,0 l/m 0,0 km/h (0 Bft) S-SW 203 0 min 0,000 mm 1,0 UV-I 66 W/m 11,9 C 13,7 C 0,0 km/h (0 Bft) 0,00 %
30.05.2015 07:30 14,2 C 87 % 1012,5 hPa 0,0 l/m 0,0 km/h (0 Bft) SW 224 0 min 0,000 mm 1,0 UV-I 116 W/m 12,1 C 14,2 C 0,0 km/h (0 Bft) 0,00 %
30.05.2015 07:45 16,0 C 79 % 1012,4 hPa 0,0 l/m 3,2 km/h (1 Bft) W-SW 256 0 min 0,000 mm 1,0 UV-I 142 W/m 12,4 C 16,0 C 7,9 km/h (2 Bft) 0,00 %
30.05.2015 08:00 17,3 C 73 % 1012,2 hPa 0,0 l/m 0,0 km/h (0 Bft) SW 214 15 min 0,000 mm 2,0 UV-I 329 W/m 12,4 C 17,3 C 0,0 km/h (0 Bft) 0,00 %
30.05.2015 08:15 18,4 C 70 % 1012,3 hPa 0,0 l/m 0,4 km/h (0 Bft) SW 232 15 min 0,000 mm 2,0 UV-I 428 W/m 12,8 C 18,4 C 4,0 km/h (1 Bft) 0,00 %
30.05.2015 08:30 17,5 C 69 % 1012,5 hPa 0,0 l/m 0,0 km/h (0 Bft) S-SW 196 15 min 0,000 mm 1,0 UV-I 302 W/m 11,7 C 17,5 C 0,0 km/h (0 Bft) 0,00 %
30.05.2015 08:45 17,6 C 68 % 1012,3 hPa 0,0 l/m 0,0 km/h (0 Bft) S 188 0 min 0,000 mm 2,0 UV-I 188 W/m 11,6 C 17,6 C 0,0 km/h (0 Bft) 0,00 %
30.05.2015 09:00 17,6 C 67 % 1012,8 hPa 0,0 l/m 0,0 km/h (0 Bft) S 187 0 min 0,000 mm 2,0 UV-I 221 W/m 11,4 C 17,6 C 0,0 km/h (0 Bft) 0,00 %
30.05.2015 09:15 18,2 C 67 % 1012,6 hPa 0,0 l/m 0,0 km/h (0 Bft) S 188 0 min 0,000 mm 2,0 UV-I 299 W/m 12,0 C 18,2 C 0,0 km/h (0 Bft) 0,00 %
30.05.2015 09:30 18,7 C 66 % 1012,6 hPa 0,0 l/m 3,2 km/h (1 Bft) SW 219 0 min 0,000 mm 3,0 UV-I 294 W/m 12,2 C 18,7 C 4,0 km/h (1 Bft) 0,00 %
30.05.2015 09:45 19,5 C 63 % 1012,4 hPa 0,0 l/m 0,0 km/h (0 Bft) SO 140 0 min 0,000 mm 2,0 UV-I 313 W/m 12,3 C 19,5 C 0,0 km/h (0 Bft) 0,00 %
30.05.2015 10:00 19,9 C 62 % 1012,2 hPa 0,0 l/m 0,0 km/h (0 Bft) S 183 0 min 0,000 mm 3,0 UV-I 278 W/m 12,4 C 19,9 C 0,0 km/h (0 Bft) 0,00 %
30.05.2015 10:15 20,1 C 61 % 1012,2 hPa 0,0 l/m 2,2 km/h (1 Bft) SW 216 15 min 0,000 mm 4,0 UV-I 416 W/m 12,3 C 20,1 C 4,0 km/h (1 Bft) 0,00 %
30.05.2015 10:30 20,4 C 61 % 1012,1 hPa 0,0 l/m 0,0 km/h (0 Bft) W-SW 256 0 min 0,000 mm 2,0 UV-I 400 W/m 12,6 C 20,4 C 0,0 km/h (0 Bft) 0,00 %
30.05.2015 10:45 20,2 C 58 % 1012,3 hPa 0,0 l/m 0,4 km/h (0 Bft) SO 130 0 min 0,000 mm 3,0 UV-I 346 W/m 11,7 C 20,2 C 4,0 km/h (1 Bft) 0,00 %
30.05.2015 11:00 20,1 C 53 % 1012,3 hPa 0,0 l/m 0,7 km/h (0 Bft) S-SW 195 0 min 0,000 mm 3,0 UV-I 351 W/m 10,2 C 20,1 C 4,0 km/h (1 Bft) 0,00 %
30.05.2015 11:15 20,5 C 53 % 1012,2 hPa 0,0 l/m 0,0 km/h (0 Bft) S 187 15 min 0,000 mm 3,0 UV-I 475 W/m 10,6 C 20,5 C 0,0 km/h (0 Bft) 0,00 %
30.05.2015 11:30 20,7 C 50 % 1012,3 hPa 0,0 l/m 6,5 km/h (2 Bft) S 175 15 min 0,000 mm 4,0 UV-I 644 W/m 9,9 C 20,7 C 7,9 km/h (2 Bft) 0,00 %
30.05.2015 11:45 21,2 C 46 % 1012,1 hPa 0,0 l/m 1,8 km/h (1 Bft) SW 223 0 min 0,000 mm 4,0 UV-I 445 W/m 9,1 C 21,2 C 4,0 km/h (1 Bft) 0,00 %
30.05.2015 12:00 22,0 C 48 % 1011,9 hPa 0,0 l/m 3,2 km/h (1 Bft) N-NO 24 15 min 0,000 mm 2,0 UV-I 1047 W/m 10,5 C 22,0 C 7,9 km/h (2 Bft) 0,00 %
30.05.2015 12:15 21,2 C 48 % 1012,0 hPa 0,0 l/m 2,2 km/h (1 Bft) S-SW 211 0 min 0,000 mm 3,0 UV-I 315 W/m 9,7 C 21,2 C 4,0 km/h (1 Bft) 0,00 %
30.05.2015 12:30 21,5 C 50 % 1011,9 hPa 0,0 l/m 0,0 km/h (0 Bft) SO 132 15 min 0,000 mm 2,0 UV-I 487 W/m 10,6 C 21,5 C 0,0 km/h (0 Bft) 0,00 %
30.05.2015 12:45 21,0 C 51 % 1011,7 hPa 0,0 l/m 0,0 km/h (0 Bft) S-SW 203 0 min 0,000 mm 2,0 UV-I 291 W/m 10,5 C 21,0 C 0,0 km/h (0 Bft) 0,00 %
30.05.2015 13:00 21,2 C 50 % 1011,9 hPa 0,0 l/m 4,7 km/h (1 Bft) SW 231 0 min 0,000 mm 2,0 UV-I 340 W/m 10,4 C 21,2 C 7,9 km/h (2 Bft) 0,00 %
30.05.2015 13:15 20,8 C 49 % 1012,0 hPa 0,0 l/m 4,7 km/h (1 Bft) S-SW 211 0 min 0,000 mm 1,0 UV-I 315 W/m 9,7 C 20,8 C 7,9 km/h (2 Bft) 0,00 %
30.05.2015 13:30 20,8 C 48 % 1011,9 hPa 0,0 l/m 0,4 km/h (0 Bft) S-SW 205 0 min 0,000 mm 1,0 UV-I 290 W/m 9,4 C 20,8 C 4,0 km/h (1 Bft) 0,00 %
30.05.2015 13:45 21,2 C 45 % 1011,7 hPa 0,0 l/m 1,8 km/h (1 Bft) S-SW 209 0 min 0,000 mm 5,0 UV-I 216 W/m 8,8 C 21,2 C 4,0 km/h (1 Bft) 0,00 %
30.05.2015 14:00 22,6 C 43 % 1011,4 hPa 0,0 l/m 0,0 km/h (0 Bft) W 260 15 min 0,000 mm 3,0 UV-I 961 W/m 9,4 C 22,6 C 0,0 km/h (0 Bft) 0,00 %
30.05.2015 14:15 22,2 C 41 % 1011,4 hPa 0,0 l/m 0,0 km/h (0 Bft) S-SO 159 0 min 0,000 mm 2,0 UV-I 339 W/m 8,3 C 22,2 C 0,0 km/h (0 Bft) 0,00 %
30.05.2015 14:30 21,5 C 49 % 1011,5 hPa 0,0 l/m 1,8 km/h (1 Bft) W-SW 253 0 min 0,000 mm 2,0 UV-I 317 W/m 10,3 C 21,5 C 4,0 km/h (1 Bft) 0,00 %
30.05.2015 14:45 21,6 C 49 % 1011,6 hPa 0,0 l/m 4,3 km/h (1 Bft) N-NW 339 0 min 0,000 mm 3,0 UV-I 382 W/m 10,4 C 21,6 C 7,9 km/h (2 Bft) 0,00 %
30.05.2015 15:00 20,8 C 55 % 1012,2 hPa 0,0 l/m 2,9 km/h (1 Bft) W 271 0 min 0,000 mm 1,0 UV-I 433 W/m 11,4 C 20,8 C 4,0 km/h (1 Bft) 0,00 %
30.05.2015 15:15 19,9 C 57 % 1012,4 hPa 0,0 l/m 0,0 km/h (0 Bft) SW 222 0 min 0,000 mm 1,0 UV-I 156 W/m 11,1 C 19,9 C 0,0 km/h (0 Bft) 0,00 %
30.05.2015 15:30 19,7 C 57 % 1012,5 hPa 0,0 l/m 4,3 km/h (1 Bft) SO 136 0 min 0,000 mm 1,0 UV-I 174 W/m 10,9 C 19,7 C 7,9 km/h (2 Bft) 0,00 %
30.05.2015 15:45 20,0 C 59 % 1012,7 hPa 0,0 l/m 0,0 km/h (0 Bft) S 190 0 min 0,000 mm 1,0 UV-I 196 W/m 11,7 C 20,0 C 0,0 km/h (0 Bft) 0,00 %
30.05.2015 16:00 19,8 C 57 % 1012,6 hPa 0,0 l/m 0,0 km/h (0 Bft) S 175 0 min 0,000 mm 1,0 UV-I 159 W/m 11,0 C 19,8 C 0,0 km/h (0 Bft) 0,00 %
30.05.2015 16:15 19,7 C 56 % 1012,7 hPa 0,0 l/m 2,2 km/h (1 Bft) W-SW 254 0 min 0,000 mm 1,0 UV-I 156 W/m 10,7 C 19,7 C 4,0 km/h (1 Bft) 0,00 %
30.05.2015 16:30 19,4 C 58 % 1012,9 hPa 0,0 l/m 4,3 km/h (1 Bft) W-SW 255 0 min 0,000 mm 1,0 UV-I 130 W/m 10,9 C 19,4 C 7,9 km/h (2 Bft) 0,00 %
30.05.2015 16:45 19,1 C 60 % 1012,6 hPa 0,0 l/m 0,0 km/h (0 Bft) S-SW 203 0 min 0,000 mm 1,0 UV-I 103 W/m 11,1 C 19,1 C 0,0 km/h (0 Bft) 0,00 %
30.05.2015 17:00 19,4 C 60 % 1012,7 hPa 0,0 l/m 0,0 km/h (0 Bft) S 187 0 min 0,000 mm 1,0 UV-I 121 W/m 11,4 C 19,4 C 0,0 km/h (0 Bft) 0,00 %
30.05.2015 17:15 19,1 C 61 % 1012,8 hPa 0,0 l/m 0,0 km/h (0 Bft) S-SW 202 0 min 0,000 mm 1,0 UV-I 96 W/m 11,4 C 19,1 C 0,0 km/h (0 Bft) 0,00 %
30.05.2015 17:30 18,9 C 64 % 1013,0 hPa 0,0 l/m 0,0 km/h (0 Bft) N-NO 30 0 min 0,000 mm 1,0 UV-I 96 W/m 11,9 C 18,9 C 0,0 km/h (0 Bft) 0,00 %
30.05.2015 17:45 18,5 C 63 % 1013,1 hPa 0,0 l/m 0,0 km/h (0 Bft) S 176 0 min 0,000 mm 0,0 UV-I 139 W/m 11,3 C 18,5 C 0,0 km/h (0 Bft) 0,00 %
30.05.2015 18:00 17,9 C 70 % 1013,3 hPa 0,0 l/m 0,0 km/h (0 Bft) S 180 0 min 0,000 mm 0,0 UV-I 19 W/m 12,3 C 17,9 C 0,0 km/h (0 Bft) 0,00 %
30.05.2015 18:15 17,6 C 73 % 1013,8 hPa 0,0 l/m 4,3 km/h (1 Bft) SW 217 0 min 0,000 mm 0,0 UV-I 44 W/m 12,7 C 17,6 C 7,9 km/h (2 Bft) 0,00 %
30.05.2015 18:30 16,5 C 83 % 1014,2 hPa 0,9 l/m 0,0 km/h (0 Bft) S-SW 193 0 min 0,000 mm 1,0 UV-I 58 W/m 13,6 C 16,5 C 0,0 km/h (0 Bft) 0,00 %
30.05.2015 18:45 16,4 C 81 % 1014,2 hPa 0,0 l/m 0,0 km/h (0 Bft) S 184 0 min 0,000 mm 1,0 UV-I 138 W/m 13,1 C 16,4 C 0,0 km/h (0 Bft) 0,00 %
30.05.2015 19:00 16,5 C 81 % 1014,4 hPa 0,0 l/m 0,0 km/h (0 Bft) S-SW 204 0 min 0,000 mm 1,0 UV-I 105 W/m 13,2 C 16,5 C 0,0 km/h (0 Bft) 0,00 %
30.05.2015 19:15 16,0 C 79 % 1014,7 hPa 0,0 l/m 0,0 km/h (0 Bft) S-SW 201 0 min 0,000 mm 0,0 UV-I 60 W/m 12,4 C 16,0 C 0,0 km/h (0 Bft) 0,00 %
30.05.2015 19:30 15,6 C 71 % 1014,9 hPa 0,0 l/m 0,0 km/h (0 Bft) SO 129 0 min 0,000 mm 0,0 UV-I 53 W/m 10,4 C 15,6 C 0,0 km/h (0 Bft) 0,00 %
30.05.2015 19:45 15,4 C 71 % 1015,1 hPa 0,0 l/m 0,0 km/h (0 Bft) S 173 0 min 0,000 mm 0,0 UV-I 24 W/m 10,2 C 15,4 C 0,0 km/h (0 Bft) 0,00 %
30.05.2015 20:00 15,1 C 71 % 1015,2 hPa 0,0 l/m 0,0 km/h (0 Bft) S 184 0 min 0,000 mm 0,0 UV-I 6 W/m 9,9 C 15,1 C 0,0 km/h (0 Bft) 0,00 %
30.05.2015 20:15 15,1 C 70 % 1015,6 hPa 0,0 l/m 0,0 km/h (0 Bft) W 279 0 min 0,000 mm 0,0 UV-I 0 W/m 9,7 C 15,1 C 0,0 km/h (0 Bft) 0,00 %
30.05.2015 20:30 14,9 C 70 % 1015,9 hPa 0,0 l/m 0,0 km/h (0 Bft) S-SW 209 0 min 0,000 mm 0,0 UV-I 0 W/m 9,5 C 14,9 C 0,0 km/h (0 Bft) 0,00 %
30.05.2015 20:45 14,8 C 72 % 1016,0 hPa 0,0 l/m 0,0 km/h (0 Bft) S 185 0 min 0,000 mm 0,0 UV-I 0 W/m 9,8 C 14,8 C 0,0 km/h (0 Bft) 0,00 %
30.05.2015 21:00 14,6 C 73 % 1016,2 hPa 0,0 l/m 0,0 km/h (0 Bft) S 187 0 min 0,000 mm 0,0 UV-I 0 W/m 9,8 C 14,6 C 0,0 km/h (0 Bft) 0,00 %
30.05.2015 21:15 14,4 C 74 % 1016,7 hPa 0,0 l/m 0,0 km/h (0 Bft) S-SW 193 0 min 0,000 mm 0,0 UV-I 0 W/m 9,8 C 14,4 C 0,0 km/h (0 Bft) 0,00 %
30.05.2015 21:30 14,4 C 74 % 1016,8 hPa 0,0 l/m 0,0 km/h (0 Bft) S 183 0 min 0,000 mm 0,0 UV-I 0 W/m 9,8 C 14,4 C 0,0 km/h (0 Bft) 0,00 %
30.05.2015 21:45 14,2 C 73 % 1017,0 hPa 0,0 l/m 0,0 km/h (0 Bft) S-SO 149 0 min 0,000 mm 0,0 UV-I 0 W/m 9,4 C 14,2 C 0,0 km/h (0 Bft) 0,00 %
30.05.2015 22:00 13,9 C 74 % 1017,1 hPa 0,0 l/m 0,0 km/h (0 Bft) S 190 0 min 0,000 mm 0,0 UV-I 0 W/m 9,3 C 13,9 C 0,0 km/h (0 Bft) 0,00 %
30.05.2015 22:15 13,8 C 77 % 1017,0 hPa 0,0 l/m 0,0 km/h (0 Bft) S 186 0 min 0,000 mm 0,0 UV-I 0 W/m 9,8 C 13,8 C 0,0 km/h (0 Bft) 0,00 %
30.05.2015 22:30 13,6 C 79 % 1017,6 hPa 0,0 l/m 0,0 km/h (0 Bft) S 172 0 min 0,000 mm 0,0 UV-I 0 W/m 10,0 C 13,6 C 0,0 km/h (0 Bft) 0,00 %
30.05.2015 22:45 13,4 C 81 % 1017,6 hPa 0,0 l/m 0,0 km/h (0 Bft) S 178 0 min 0,000 mm 0,0 UV-I 0 W/m 10,2 C 13,4 C 0,0 km/h (0 Bft) 0,00 %
30.05.2015 23:00 13,1 C 80 % 1017,6 hPa 0,0 l/m 0,0 km/h (0 Bft) S 182 0 min 0,000 mm 0,0 UV-I 0 W/m 9,7 C 13,1 C 0,0 km/h (0 Bft) 0,00 %
30.05.2015 23:15 12,9 C 81 % 1017,8 hPa 0,0 l/m 0,0 km/h (0 Bft) S 176 0 min 0,000 mm 0,0 UV-I 0 W/m 9,7 C 12,9 C 0,0 km/h (0 Bft) 0,00 %
30.05.2015 23:30 12,8 C 79 % 1018,0 hPa 0,0 l/m 0,0 km/h (0 Bft) S 177 0 min 0,000 mm 0,0 UV-I 0 W/m 9,2 C 12,8 C 0,0 km/h (0 Bft) 0,00 %
30.05.2015 23:45 12,8 C 82 % 1017,9 hPa 0,0 l/m 0,0 km/h (0 Bft) S 181 0 min 0,000 mm 0,0 UV-I 0 W/m 9,8 C 12,8 C 0,0 km/h (0 Bft) 0,00 %
_ Min-Zeit 05:15 14:15 00:00 - 00:15 - - - - - - 14:15 05:15 00:15 00:00
Minimum _ 12,2 C 41 % 1009,4 hPa - 0,0 km/h (0 Bft) - - - - - - 8,3 C 12,2 C 0,0 km/h (0 Bft) 0,00 %
_ Max-Zeit 14:00 05:30 23:30 01:00 03:45 - - 08:00 00:00 13:45 12:00 18:30 14:00 03:45 00:00
Maximum _ 22,6 C 95 % 1018,0 hPa 1,2 l/m 7,2 km/h
O-SO (2 Bft)
- - 15 min 0,000 mm 5,0 UV-I 1047 W/m 13,6 C 22,6 C 11,9 km/h
O-SO (2 Bft)
0,00 %
Durchschnitt _ 16,5 C 72 % 1013,0 hPa #2,7 l/m 0,8 km/h (0 Bft) SW - #2:15 h #0,000 mm 1,9 UV-I 240 W/m 11,0 C 16,5 C 1,7 km/h (1 Bft) 0,00 %